Embarrass, Wisconsin
Current Conditions -  °F | °C
As of 4:55 AM on Friday 31 Oct 2014 (Local Time) from KCLI Reporting Station
Overcast Overcast  
Wind Chill: 22°   Ceiling: 3600
Heat Index: 34°   Visibility: 10mi
Dew Point: 27°   Wind: 20mph
Humidity: 75%   Direction: 360°N
Pressure: 30.15"   Gusts: 30mph
Location:  44.67°N, 88.71°W
Report Text: KCLI 310955Z AUTO 36017G26KT 10SM BKN036 OVC042 01/M03 A3015 RMK AO2
Loading
Personal Weather Stations






























Interactive Weather Map New forecast layout! Learn more

10-Day Weather Forecast

Advertisements
Track Severe Weather on mobile